Time;durP1;ratioP1;P1;durP2;ratioP2;P2;SDS_P1;SDS_P2;PMS_P1;PMS_P2;Temp;Humidity;BMP_temperature;BMP_pressure;BME280_temperature;BME280_humidity;BME280_pressure;Samples;Min_cycle;Max_cycle;Signal;HPM_P1;HPM_P2
2023/09/18 00:02:09;;;;;;;3.78;3.00;;;21.90;68.50;;;;;;4996811;28;20112;-79
2023/09/18 00:04:35;;;;;;;4.18;3.25;;;21.90;68.50;;;;;;5012938;28;20036;-78
2023/09/18 00:07:01;;;;;;;4.18;3.10;;;21.90;68.50;;;;;;4999722;28;20068;-78
2023/09/18 00:09:26;;;;;;;3.47;2.88;;;21.80;68.50;;;;;;5016604;28;20088;-78
2023/09/18 00:11:52;;;;;;;3.67;2.83;;;21.80;68.50;;;;;;4996713;28;20037;-78
2023/09/18 00:14:18;;;;;;;4.00;2.90;;;21.80;68.50;;;;;;4963947;28;20403;-78
2023/09/18 00:16:44;;;;;;;4.28;3.15;;;21.80;68.50;;;;;;4996354;28;20053;-79
2023/09/18 00:19:10;;;;;;;4.78;3.65;;;21.80;68.50;;;;;;4979825;28;20030;-78
2023/09/18 00:21:36;;;;;;;4.22;3.50;;;21.80;68.50;;;;;;4996171;28;20033;-78
2023/09/18 00:24:03;;;;;;;4.22;2.95;;;21.80;68.50;;;;;;4979966;28;20490;-78
2023/09/18 00:26:28;;;;;;;4.20;3.33;;;21.80;68.60;;;;;;4980217;28;20042;-78
2023/09/18 00:28:54;;;;;;;3.78;3.08;;;21.80;68.60;;;;;;4996130;28;20033;-78
2023/09/18 00:31:20;;;;;;;4.30;3.42;;;21.80;68.60;;;;;;4979653;28;20375;-79
2023/09/18 00:33:48;;;;;;;3.97;3.17;;;21.80;68.60;;;;;;5012400;28;20471;-78
2023/09/18 00:36:13;;;;;;;4.43;3.28;;;21.80;68.60;;;;;;4995497;28;20506;-78
2023/09/18 00:38:39;;;;;;;3.92;3.17;;;21.80;68.60;;;;;;4996002;28;20037;-78
2023/09/18 00:41:06;;;;;;;4.38;3.22;;;21.80;68.70;;;;;;5012086;28;20026;-78
2023/09/18 00:43:31;;;;;;;4.35;3.15;;;21.70;68.70;;;;;;4980544;28;20073;-78
2023/09/18 00:45:57;;;;;;;4.63;3.65;;;21.80;68.70;;;;;;4995659;28;20057;-78
2023/09/18 00:48:23;;;;;;;5.10;3.90;;;21.80;68.70;;;;;;4996374;28;20030;-79
2023/09/18 00:50:49;;;;;;;3.85;3.28;;;21.80;68.70;;;;;;5012437;28;20034;-79
2023/09/18 00:53:21;;;;;;;4.47;3.72;;;21.70;68.70;;;;;;5012497;28;20030;-78
2023/09/18 00:55:49;;;;;;;5.05;3.90;;;21.80;68.80;;;;;;5013834;28;20048;-79
2023/09/18 00:58:16;;;;;;;4.30;3.42;;;21.70;68.70;;;;;;4995938;28;20097;-78
2023/09/18 01:00:43;;;;;;;4.68;3.47;;;21.70;68.70;;;;;;5012115;28;20038;-78
2023/09/18 01:03:08;;;;;;;3.90;3.28;;;21.70;68.70;;;;;;4996135;28;20475;-79
2023/09/18 01:05:35;;;;;;;4.72;3.55;;;21.70;68.70;;;;;;5017218;28;20033;-78
2023/09/18 01:08:01;;;;;;;4.68;3.58;;;21.70;68.80;;;;;;4999618;28;20046;-78
2023/09/18 01:10:36;;;;;;;4.47;3.47;;;21.70;68.80;;;;;;5000390;28;20030;-78
2023/09/18 01:13:13;;;;;;;4.60;3.35;;;21.70;68.80;;;;;;5015806;28;20032;-78
2023/09/18 01:15:51;;;;;;;4.55;3.53;;;21.70;68.80;;;;;;4999735;28;20065;-79
2023/09/18 01:18:18;;;;;;;4.32;3.22;;;21.70;68.80;;;;;;5015828;28;20034;-79
2023/09/18 01:20:44;;;;;;;4.82;3.80;;;21.70;68.80;;;;;;5016410;28;20049;-78
2023/09/18 01:23:11;;;;;;;4.57;3.50;;;21.70;68.80;;;;;;4982913;28;20194;-79
2023/09/18 01:25:37;;;;;;;4.22;3.28;;;21.70;68.80;;;;;;4999657;28;20038;-78
2023/09/18 01:28:03;;;;;;;4.93;4.15;;;21.70;68.80;;;;;;4999466;28;20034;-79
2023/09/18 01:30:29;;;;;;;4.68;3.78;;;21.70;68.80;;;;;;4982751;28;20040;-78
2023/09/18 01:32:58;;;;;;;3.90;3.28;;;21.70;68.90;;;;;;5015272;28;20034;-78
2023/09/18 01:35:29;;;;;;;4.53;3.72;;;21.70;68.90;;;;;;5016633;28;20026;-79
2023/09/18 01:37:59;;;;;;;5.40;4.00;;;21.70;69.00;;;;;;5016257;28;20117;-78
2023/09/18 01:40:26;;;;;;;4.47;3.60;;;21.70;69.00;;;;;;5015890;28;20034;-78
2023/09/18 01:42:53;;;;;;;4.65;3.60;;;21.70;69.00;;;;;;4979374;28;20077;-79
2023/09/18 01:45:19;;;;;;;5.28;3.78;;;21.70;69.00;;;;;;4995632;28;20022;-78
2023/09/18 01:47:46;;;;;;;4.93;4.10;;;21.70;69.00;;;;;;5012168;28;20033;-79
2023/09/18 01:50:13;;;;;;;4.47;3.65;;;21.70;69.00;;;;;;4995548;28;20161;-79
2023/09/18 01:52:38;;;;;;;4.63;3.42;;;21.70;69.00;;;;;;4995448;28;20086;-79
2023/09/18 01:55:05;;;;;;;4.32;3.47;;;21.70;69.00;;;;;;4996027;28;20113;-79
2023/09/18 01:57:30;;;;;;;4.50;3.70;;;21.70;69.00;;;;;;4996543;28;20168;-78
2023/09/18 01:59:56;;;;;;;4.63;3.67;;;21.70;69.00;;;;;;4995486;28;20495;-79
2023/09/18 02:02:23;;;;;;;4.45;3.75;;;21.70;69.10;;;;;;4979338;28;20073;-79
2023/09/18 02:04:49;;;;;;;4.28;3.50;;;21.70;69.10;;;;;;4963020;28;20037;-79
2023/09/18 02:07:15;;;;;;;4.65;3.60;;;21.70;69.10;;;;;;4995781;28;20034;-78
2023/09/18 02:09:41;;;;;;;5.03;4.00;;;21.70;69.10;;;;;;4979443;28;20053;-78
2023/09/18 02:12:07;;;;;;;5.63;4.30;;;21.70;69.10;;;;;;4995908;28;20041;-78
2023/09/18 02:14:33;;;;;;;4.53;3.72;;;21.70;69.10;;;;;;4998491;28;20031;-78
2023/09/18 02:17:00;;;;;;;5.15;3.90;;;21.70;69.10;;;;;;4982453;28;20037;-78
2023/09/18 02:19:26;;;;;;;4.95;3.70;;;21.70;69.20;;;;;;4998825;28;20042;-79
2023/09/18 02:21:52;;;;;;;4.32;3.58;;;21.70;69.10;;;;;;4981559;28;20026;-78
2023/09/18 02:24:19;;;;;;;4.60;3.65;;;21.70;69.20;;;;;;4997579;28;20176;-78
2023/09/18 02:26:45;;;;;;;5.38;3.70;;;21.60;69.10;;;;;;5011997;28;20034;-78
2023/09/18 02:29:11;;;;;;;4.57;3.50;;;21.60;69.80;;;;;;4994728;28;20153;-79
2023/09/18 02:31:38;;;;;;;5.65;3.50;;;21.60;69.10;;;;;;5011018;28;20031;-78
2023/09/18 02:34:04;;;;;;;4.40;3.30;;;21.60;69.10;;;;;;4994976;28;20037;-79
2023/09/18 02:36:30;;;;;;;5.13;3.83;;;21.70;69.20;;;;;;4978566;28;20129;-79
2023/09/18 02:38:56;;;;;;;4.38;3.55;;;21.60;69.10;;;;;;4995003;28;20177;-78
2023/09/18 02:41:22;;;;;;;4.80;3.80;;;21.60;69.10;;;;;;4997065;28;20066;-78
2023/09/18 02:43:48;;;;;;;4.72;3.75;;;21.60;69.10;;;;;;5014066;28;20057;-78
2023/09/18 02:46:13;;;;;;;4.90;3.83;;;21.70;69.80;;;;;;4965771;28;20115;-79
2023/09/18 02:48:39;;;;;;;4.85;3.85;;;21.60;69.10;;;;;;4997929;28;20037;-79
2023/09/18 02:51:05;;;;;;;5.22;3.75;;;21.60;69.10;;;;;;4965650;28;20521;-78
2023/09/18 02:53:31;;;;;;;5.15;3.78;;;21.60;69.10;;;;;;4981517;28;20449;-78
2023/09/18 02:55:59;;;;;;;3.90;3.25;;;21.60;69.10;;;;;;5014855;28;20026;-79
2023/09/18 02:58:26;;;;;;;4.10;3.33;;;21.60;69.10;;;;;;4997083;28;20030;-77
2023/09/18 03:00:54;;;;;;;4.63;3.40;;;21.70;69.20;;;;;;4997879;28;20057;-78
2023/09/18 03:03:21;;;;;;;4.43;3.65;;;21.60;69.10;;;;;;4997748;28;20028;-78
2023/09/18 03:05:47;;;;;;;5.93;3.72;;;21.60;69.10;;;;;;5013713;28;20026;-79
2023/09/18 03:08:15;;;;;;;5.10;3.95;;;21.60;69.10;;;;;;5014334;28;20375;-78
2023/09/18 03:10:43;;;;;;;4.82;3.75;;;21.60;69.10;;;;;;4997502;28;20117;-78
2023/09/18 03:13:10;;;;;;;4.93;3.72;;;21.60;69.10;;;;;;4998043;28;20030;-78
2023/09/18 03:15:37;;;;;;;4.78;3.70;;;21.60;69.10;;;;;;4984770;28;20026;-78
2023/09/18 03:18:04;;;;;;;4.72;3.53;;;21.60;69.10;;;;;;5013968;28;20044;-79
2023/09/18 03:20:31;;;;;;;5.07;3.85;;;21.60;69.10;;;;;;4981046;28;20389;-78
2023/09/18 03:22:59;;;;;;;4.63;3.42;;;21.60;69.10;;;;;;4981910;28;20446;-79
2023/09/18 03:25:25;;;;;;;4.18;3.42;;;21.60;69.20;;;;;;5013374;28;20493;-78
2023/09/18 03:27:53;;;;;;;5.22;3.35;;;21.60;69.20;;;;;;4980777;28;20520;-78
2023/09/18 03:30:21;;;;;;;4.32;3.42;;;21.60;69.10;;;;;;4996626;28;20026;-79
2023/09/18 03:32:50;;;;;;;3.83;3.05;;;21.60;69.20;;;;;;5013608;28;20488;-79
2023/09/18 03:35:18;;;;;;;3.78;3.08;;;21.60;69.20;;;;;;5012996;28;20084;-78
2023/09/18 03:37:45;;;;;;;4.40;3.22;;;21.60;69.10;;;;;;4980742;28;20034;-79
2023/09/18 03:40:11;;;;;;;3.78;3.15;;;21.60;69.10;;;;;;5013338;28;20478;-79
2023/09/18 03:42:37;;;;;;;4.15;3.30;;;21.60;69.10;;;;;;4977314;28;20141;-78
2023/09/18 03:45:06;;;;;;;5.43;3.53;;;21.60;69.20;;;;;;4993856;28;20035;-79
2023/09/18 03:47:33;;;;;;;4.80;3.30;;;21.60;69.20;;;;;;4993462;28;20038;-79
2023/09/18 03:49:59;;;;;;;4.82;3.38;;;21.60;69.20;;;;;;4993258;28;20035;-79
2023/09/18 03:52:25;;;;;;;4.45;3.30;;;21.60;69.20;;;;;;4960920;28;20049;-79
2023/09/18 03:54:51;;;;;;;4.80;3.40;;;21.60;69.20;;;;;;4993678;28;20042;-79
2023/09/18 03:57:16;;;;;;;4.72;3.53;;;21.60;69.20;;;;;;4993475;28;20030;-78
2023/09/18 03:59:42;;;;;;;3.97;3.15;;;21.60;69.20;;;;;;4993030;28;20030;-78
2023/09/18 04:02:08;;;;;;;3.95;3.15;;;21.60;69.20;;;;;;5009634;28;20041;-78
2023/09/18 04:04:34;;;;;;;3.97;2.70;;;21.60;69.20;;;;;;5009779;28;20472;-79
2023/09/18 04:06:59;;;;;;;5.10;3.58;;;21.60;69.90;;;;;;4993709;28;20479;-79
2023/09/18 04:09:25;;;;;;;4.35;3.35;;;21.60;69.20;;;;;;4977013;28;20539;-78
2023/09/18 04:11:51;;;;;;;4.35;3.28;;;21.60;69.20;;;;;;5010187;28;20062;-79
2023/09/18 04:14:17;;;;;;;4.45;3.33;;;21.60;69.20;;;;;;4996049;28;20145;-79
2023/09/18 04:16:44;;;;;;;4.80;3.25;;;21.60;69.20;;;;;;5010994;28;20035;-78
2023/09/18 04:19:09;;;;;;;4.38;3.42;;;21.60;69.20;;;;;;4961720;28;20065;-78
2023/09/18 04:21:36;;;;;;;5.07;3.20;;;21.60;69.20;;;;;;4977879;28;20034;-78
2023/09/18 04:24:02;;;;;;;4.30;3.50;;;21.60;69.20;;;;;;4992918;28;20478;-79
2023/09/18 04:26:31;;;;;;;4.43;3.33;;;21.60;69.30;;;;;;4976842;28;20042;-79
2023/09/18 04:28:59;;;;;;;4.47;3.45;;;21.60;69.20;;;;;;4993191;28;20026;-78
2023/09/18 04:31:25;;;;;;;4.25;3.30;;;21.60;69.20;;;;;;5009314;28;20026;-77
2023/09/18 04:33:51;;;;;;;4.07;3.00;;;21.60;69.30;;;;;;4961334;28;20045;-78
2023/09/18 04:36:17;;;;;;;4.65;3.38;;;21.60;69.20;;;;;;4992725;28;20038;-78
2023/09/18 04:38:43;;;;;;;4.38;3.15;;;21.60;69.30;;;;;;4977788;28;20030;-78
2023/09/18 04:41:10;;;;;;;4.38;3.33;;;21.60;69.30;;;;;;4997376;28;20514;-78
2023/09/18 04:43:38;;;;;;;4.10;3.25;;;21.60;69.30;;;;;;4996753;28;20062;-77
2023/09/18 04:46:05;;;;;;;4.72;3.28;;;21.60;69.30;;;;;;4964480;28;20045;-78
2023/09/18 04:48:32;;;;;;;3.97;3.08;;;21.60;69.30;;;;;;4980267;28;20038;-79
2023/09/18 04:50:59;;;;;;;4.63;3.35;;;21.60;69.30;;;;;;4980869;28;20439;-79
2023/09/18 04:53:30;;;;;;;3.70;2.90;;;21.60;69.30;;;;;;5012864;28;20023;-79
2023/09/18 04:55:56;;;;;;;4.70;3.35;;;21.60;69.30;;;;;;5013176;28;20133;-79
2023/09/18 04:58:22;;;;;;;4.07;3.10;;;21.60;69.30;;;;;;4996608;28;20126;-77
2023/09/18 05:00:58;;;;;;;3.80;2.83;;;21.60;69.30;;;;;;4996685;28;20026;-77
2023/09/18 05:03:29;;;;;;;4.32;3.38;;;21.60;69.40;;;;;;4997316;28;20030;-77
2023/09/18 05:05:55;;;;;;;4.35;3.10;;;21.60;69.30;;;;;;5012943;28;20023;-77
2023/09/18 05:08:21;;;;;;;4.32;2.90;;;21.60;69.30;;;;;;4997119;28;20472;-79
2023/09/18 05:10:47;;;;;;;4.70;3.30;;;21.60;69.30;;;;;;4996551;28;20034;-79
2023/09/18 05:13:13;;;;;;;3.55;2.80;;;21.50;69.20;;;;;;4980231;28;20367;-79
2023/09/18 05:15:39;;;;;;;3.97;2.85;;;21.60;69.40;;;;;;4997410;28;20110;-79
2023/09/18 05:18:05;;;;;;;3.40;2.72;;;21.60;69.40;;;;;;4980508;28;20034;-79
2023/09/18 05:20:31;;;;;;;4.00;2.90;;;21.60;69.40;;;;;;5000764;28;20035;-79
2023/09/18 05:22:58;;;;;;;3.95;3.10;;;21.60;69.40;;;;;;5001728;28;20034;-79
2023/09/18 05:25:26;;;;;;;3.35;2.40;;;21.60;69.40;;;;;;5017118;28;20073;-78
2023/09/18 05:27:56;;;;;;;3.70;2.88;;;21.60;69.40;;;;;;4981263;28;20030;-79
2023/09/18 05:30:30;;;;;;;3.60;2.55;;;21.60;69.40;;;;;;4996825;28;20034;-79
2023/09/18 05:32:57;;;;;;;4.05;2.78;;;21.60;69.40;;;;;;4997551;28;20034;-79
2023/09/18 05:35:23;;;;;;;3.50;2.60;;;21.60;69.40;;;;;;5012198;28;20030;-79
2023/09/18 05:37:51;;;;;;;4.43;3.30;;;21.60;69.40;;;;;;4995607;28;20053;-79
2023/09/18 05:40:18;;;;;;;3.97;3.10;;;21.60;69.40;;;;;;4996832;28;20050;-78
2023/09/18 05:42:45;;;;;;;4.30;2.83;;;21.60;69.40;;;;;;5015167;28;20054;-83
2023/09/18 05:45:12;;;;;;;4.30;3.17;;;21.60;69.50;;;;;;4982369;28;20042;-76
2023/09/18 05:47:38;;;;;;;3.40;2.50;;;21.60;69.50;;;;;;4997546;28;20054;-80
2023/09/18 05:50:09;;;;;;;3.92;2.97;;;21.60;69.40;;;;;;4996923;28;20045;-80
2023/09/18 05:52:35;;;;;;;4.32;2.60;;;21.60;69.50;;;;;;4996621;28;20042;-79
2023/09/18 05:55:02;;;;;;;3.53;2.67;;;21.70;69.50;;;;;;4996684;28;20065;-79
2023/09/18 05:57:28;;;;;;;3.88;2.65;;;21.60;69.50;;;;;;5012536;28;20034;-79
2023/09/18 05:59:57;;;;;;;3.88;2.85;;;21.60;69.50;;;;;;4996411;28;20478;-79
2023/09/18 06:02:24;;;;;;;3.47;2.33;;;21.60;69.40;;;;;;4979735;28;20030;-79
2023/09/18 06:04:59;;;;;;;4.47;2.78;;;21.60;69.40;;;;;;4995877;28;20089;-79
2023/09/18 06:07:29;;;;;;;4.10;2.90;;;21.60;69.50;;;;;;4995474;28;20463;-78
2023/09/18 06:09:57;;;;;;;3.20;2.47;;;21.60;69.40;;;;;;4979874;28;20125;-79
2023/09/18 06:12:23;;;;;;;3.97;2.97;;;21.60;69.40;;;;;;4996706;28;20113;-77
2023/09/18 06:14:49;;;;;;;3.83;2.70;;;21.60;69.40;;;;;;4979706;28;20108;-79
2023/09/18 06:17:15;;;;;;;3.88;2.63;;;21.70;69.50;;;;;;5011752;28;20058;-80
2023/09/18 06:19:42;;;;;;;3.70;2.72;;;21.60;69.40;;;;;;4996858;28;20046;-79
2023/09/18 06:22:08;;;;;;;3.38;2.42;;;21.60;69.40;;;;;;4996569;28;20030;-80
2023/09/18 06:24:35;;;;;;;4.07;2.90;;;21.60;69.40;;;;;;4979117;28;20034;-79
2023/09/18 06:27:01;;;;;;;3.67;2.45;;;21.60;69.40;;;;;;5011758;28;20081;-80
2023/09/18 06:29:27;;;;;;;3.28;2.63;;;21.70;69.50;;;;;;4978976;28;20066;-79
2023/09/18 06:31:53;;;;;;;3.40;2.53;;;21.70;69.50;;;;;;4995154;28;20065;-80
2023/09/18 06:34:19;;;;;;;3.00;2.45;;;21.70;69.50;;;;;;5011273;28;20435;-79
2023/09/18 06:36:44;;;;;;;3.42;2.65;;;21.70;69.50;;;;;;4996177;28;20035;-78
2023/09/18 06:39:10;;;;;;;4.68;3.03;;;21.70;69.60;;;;;;4962412;28;20049;-79
2023/09/18 06:41:36;;;;;;;4.20;2.75;;;21.60;69.50;;;;;;5011035;28;20027;-80
2023/09/18 06:44:04;;;;;;;5.20;3.08;;;21.60;69.50;;;;;;4994632;28;20130;-80
2023/09/18 06:46:30;;;;;;;2.95;2.42;;;21.60;69.60;;;;;;4994395;28;20031;-80
2023/09/18 06:48:56;;;;;;;3.22;2.60;;;21.70;69.60;;;;;;4995653;28;20030;-80
2023/09/18 06:51:23;;;;;;;4.03;3.08;;;21.70;69.60;;;;;;4994623;28;20034;-79
2023/09/18 06:53:48;;;;;;;3.95;3.03;;;21.70;69.60;;;;;;4994797;28;20037;-79
2023/09/18 06:56:14;;;;;;;4.00;2.63;;;21.70;69.60;;;;;;5011659;28;20367;-80
2023/09/18 06:58:40;;;;;;;4.45;2.53;;;21.70;69.60;;;;;;5010909;28;20038;-80
2023/09/18 07:01:06;;;;;;;4.63;3.22;;;21.70;69.60;;;;;;4993723;28;20034;-80
2023/09/18 07:03:35;;;;;;;4.18;2.38;;;21.70;69.60;;;;;;4995428;28;20030;-80
2023/09/18 07:06:01;;;;;;;3.22;2.50;;;21.70;69.60;;;;;;4994392;28;20038;-80
2023/09/18 07:08:26;;;;;;;3.10;2.53;;;21.70;69.50;;;;;;4977902;28;20041;-79
2023/09/18 07:10:52;;;;;;;3.25;2.25;;;21.70;69.50;;;;;;4978017;28;20038;-79
2023/09/18 07:13:18;;;;;;;3.25;2.42;;;21.70;69.50;;;;;;4995515;28;20030;-80
2023/09/18 07:15:44;;;;;;;3.25;2.45;;;21.70;69.50;;;;;;4995526;28;20033;-81
2023/09/18 07:18:14;;;;;;;2.85;2.38;;;21.70;69.60;;;;;;5010647;28;20434;-80
2023/09/18 07:20:41;;;;;;;4.15;2.80;;;21.70;69.50;;;;;;4978254;28;20133;-80
2023/09/18 07:23:07;;;;;;;3.17;2.40;;;21.70;69.60;;;;;;4993892;28;20077;-80
2023/09/18 07:25:33;;;;;;;3.10;2.28;;;21.80;69.60;;;;;;4977862;28;20030;-80
2023/09/18 07:27:58;;;;;;;3.00;2.33;;;21.80;69.60;;;;;;4994983;28;20041;-81
2023/09/18 07:30:26;;;;;;;3.00;2.45;;;21.80;69.60;;;;;;4994983;28;20029;-80
2023/09/18 07:32:57;;;;;;;2.78;2.28;;;21.80;69.70;;;;;;4994024;28;20367;-80
2023/09/18 07:35:27;;;;;;;3.40;2.28;;;21.80;69.70;;;;;;4995280;28;20053;-80
2023/09/18 07:37:53;;;;;;;3.40;2.38;;;21.80;69.70;;;;;;4993382;28;20089;-80
2023/09/18 07:40:19;;;;;;;3.33;2.30;;;21.80;69.70;;;;;;4995045;28;20043;-80
2023/09/18 07:42:45;;;;;;;2.78;2.03;;;21.80;69.70;;;;;;5010031;28;20438;-81
2023/09/18 07:45:12;;;;;;;2.67;2.00;;;21.80;69.70;;;;;;4977468;28;20065;-80
2023/09/18 07:47:38;;;;;;;3.35;2.55;;;21.90;69.70;;;;;;5010484;28;20038;-81
2023/09/18 07:50:04;;;;;;;4.38;2.72;;;21.90;69.70;;;;;;4977181;28;20036;-81
2023/09/18 07:52:31;;;;;;;2.63;2.10;;;21.90;69.70;;;;;;4995273;28;20113;-79
2023/09/18 07:55:00;;;;;;;2.05;1.83;;;21.90;69.70;;;;;;4977570;28;20030;-81
2023/09/18 07:57:31;;;;;;;3.50;2.03;;;21.90;69.70;;;;;;4978124;28;20038;-81
2023/09/18 07:59:58;;;;;;;2.28;2.00;;;21.90;69.70;;;;;;5009859;28;20031;-81
2023/09/18 08:02:25;;;;;;;2.80;2.10;;;21.90;69.70;;;;;;4961265;28;20030;-80
2023/09/18 08:04:52;;;;;;;3.70;2.40;;;21.90;69.70;;;;;;4994611;28;20108;-82
2023/09/18 08:07:19;;;;;;;3.25;2.00;;;21.90;69.70;;;;;;4993609;28;20038;-81
2023/09/18 08:09:49;;;;;;;3.10;2.00;;;21.90;69.60;;;;;;4962734;28;20034;-81
2023/09/18 08:12:14;;;;;;;1.98;1.60;;;22.00;69.70;;;;;;4979766;28;20027;-81
2023/09/18 08:14:40;;;;;;;2.35;1.90;;;22.00;69.70;;;;;;4978568;28;20037;-82
2023/09/18 08:17:07;;;;;;;2.25;1.95;;;22.00;69.70;;;;;;5000324;28;20472;-80
2023/09/18 08:19:33;;;;;;;2.33;1.60;;;22.00;69.60;;;;;;5018638;28;20062;-80
2023/09/18 08:22:03;;;;;;;3.03;1.83;;;22.00;69.60;;;;;;5002129;28;20063;-81
2023/09/18 08:24:29;;;;;;;1.83;1.48;;;22.00;69.60;;;;;;4997235;28;20123;-81
2023/09/18 08:26:55;;;;;;;2.95;2.08;;;22.00;69.50;;;;;;5015842;28;20046;-81
2023/09/18 08:29:22;;;;;;;2.53;1.92;;;22.10;69.60;;;;;;5000952;28;20117;-81
2023/09/18 08:31:50;;;;;;;2.08;1.50;;;22.10;69.60;;;;;;4999137;28;20027;-80
2023/09/18 08:34:16;;;;;;;1.60;1.50;;;22.10;69.60;;;;;;4999066;28;20058;-81
2023/09/18 08:36:41;;;;;;;2.13;1.63;;;22.10;69.50;;;;;;4997446;28;20132;-81
2023/09/18 08:39:07;;;;;;;1.80;1.60;;;22.10;69.50;;;;;;5010883;28;20119;-81
2023/09/18 08:41:37;;;;;;;2.65;1.80;;;22.10;69.50;;;;;;4995384;28;20030;-81
2023/09/18 08:44:07;;;;;;;1.73;1.58;;;22.20;69.50;;;;;;5011394;28;20046;-96
2023/09/18 08:46:34;;;;;;;1.85;1.58;;;22.20;69.50;;;;;;4992913;28;20041;-86
2023/09/18 08:49:01;;;;;;;1.90;1.67;;;22.20;69.90;;;;;;5009873;28;20022;-82
2023/09/18 08:51:28;;;;;;;1.65;1.52;;;22.20;69.50;;;;;;4976987;28;20065;-83
2023/09/18 08:53:55;;;;;;;2.00;1.70;;;22.20;69.50;;;;;;4993131;28;20062;-83
2023/09/18 08:56:22;;;;;;;1.58;1.40;;;22.30;69.50;;;;;;4993136;28;20093;-84
2023/09/18 08:58:48;;;;;;;1.75;1.40;;;22.30;69.50;;;;;;4993224;28;20114;-82
2023/09/18 09:01:14;;;;;;;1.98;1.58;;;22.30;69.40;;;;;;4976800;28;20121;-83
2023/09/18 09:03:42;;;;;;;1.73;1.40;;;22.30;69.30;;;;;;4993247;28;20432;-82
2023/09/18 09:06:09;;;;;;;1.85;1.40;;;22.30;69.30;;;;;;4992659;28;20041;-83
2023/09/18 09:08:36;;;;;;;2.08;1.38;;;22.40;69.30;;;;;;4993300;28;20497;-83
2023/09/18 09:11:02;;;;;;;1.40;1.30;;;22.40;69.30;;;;;;4976755;28;20038;-82
2023/09/18 09:13:28;;;;;;;1.67;1.50;;;22.40;69.20;;;;;;4993866;28;20097;-83
2023/09/18 09:15:56;;;;;;;1.65;1.40;;;22.50;69.20;;;;;;4993328;28;20050;-82
2023/09/18 09:18:24;;;;;;;1.90;1.60;;;22.40;69.20;;;;;;4992769;28;20042;-82
2023/09/18 09:20:57;;;;;;;1.23;1.13;;;22.50;69.20;;;;;;4992596;28;20129;-82
2023/09/18 09:23:24;;;;;;;1.63;1.27;;;22.60;69.20;;;;;;4992342;28;20038;-82
2023/09/18 09:25:51;;;;;;;1.73;1.50;;;22.60;69.20;;;;;;4997234;28;20029;-83
2023/09/18 09:28:28;;;;;;;1.70;1.30;;;22.60;69.10;;;;;;5012897;28;20034;-82
2023/09/18 09:31:02;;;;;;;1.40;1.30;;;22.60;69.00;;;;;;4997882;28;20038;-82
2023/09/18 09:33:29;;;;;;;1.55;1.38;;;22.70;69.10;;;;;;4980044;28;20038;-81
2023/09/18 09:35:56;;;;;;;1.27;1.17;;;22.70;69.00;;;;;;4996224;28;20117;-82
2023/09/18 09:38:32;;;;;;;1.48;1.38;;;22.70;68.90;;;;;;5012836;28;20060;-82
2023/09/18 09:41:01;;;;;;;1.50;1.30;;;22.70;69.00;;;;;;4996623;28;20034;-82
2023/09/18 09:43:32;;;;;;;1.27;1.10;;;22.70;68.90;;;;;;5012698;28;20125;-82
2023/09/18 09:45:58;;;;;;;1.40;1.30;;;22.80;68.90;;;;;;5012769;28;20056;-82
2023/09/18 09:48:25;;;;;;;1.50;1.40;;;22.80;68.80;;;;;;4996200;28;20122;-81
2023/09/18 09:50:51;;;;;;;1.40;1.20;;;22.80;68.70;;;;;;4963792;28;20076;-81
2023/09/18 09:53:18;;;;;;;1.25;1.17;;;22.90;68.70;;;;;;4979561;28;20034;-81
2023/09/18 09:55:44;;;;;;;1.10;1.00;;;23.00;68.70;;;;;;4996857;28;20030;-82
2023/09/18 09:58:11;;;;;;;1.42;1.27;;;23.00;68.60;;;;;;4995908;28;20038;-82
2023/09/18 10:00:45;;;;;;;1.42;1.13;;;23.10;68.60;;;;;;4979234;28;20097;-81
2023/09/18 10:03:16;;;;;;;1.35;1.10;;;23.10;68.60;;;;;;5012818;28;20038;-81
2023/09/18 10:05:44;;;;;;;1.30;1.20;;;23.20;68.50;;;;;;4995910;28;20045;-82
2023/09/18 10:08:12;;;;;;;2.00;1.30;;;23.20;69.10;;;;;;4995541;28;20038;-82
2023/09/18 10:10:44;;;;;;;1.30;1.20;;;23.30;68.40;;;;;;4995802;28;20084;-82
2023/09/18 10:13:17;;;;;;;1.30;1.00;;;23.30;68.40;;;;;;5012208;28;20146;-81
2023/09/18 10:15:43;;;;;;;1.77;1.35;;;23.40;68.40;;;;;;4996845;28;20022;-82
2023/09/18 10:18:56;;;;;;;1.05;0.95;;;23.50;68.40;;;;;;4995457;28;20030;-82
2023/09/18 10:21:41;;;;;;;1.38;1.20;;;23.50;68.30;;;;;;4977458;28;20395;-82
2023/09/18 10:24:19;;;;;;;1.13;1.00;;;23.60;68.10;;;;;;4995946;28;20026;-82
2023/09/18 10:26:50;;;;;;;1.10;1.00;;;23.70;68.20;;;;;;4996614;28;20121;-82
2023/09/18 10:29:19;;;;;;;1.55;0.98;;;23.80;68.20;;;;;;5011807;28;20030;-82
2023/09/18 10:31:46;;;;;;;1.20;1.10;;;23.80;68.20;;;;;;5012586;28;20084;-83
2023/09/18 10:34:15;;;;;;;2.08;1.30;;;23.90;68.20;;;;;;4979368;28;20031;-83
2023/09/18 10:36:44;;;;;;;1.77;1.10;;;24.00;68.20;;;;;;4994111;28;20030;-81
2023/09/18 10:39:12;;;;;;;1.88;1.27;;;24.00;68.10;;;;;;4995272;28;20173;-84
2023/09/18 10:41:41;;;;;;;1.55;1.30;;;24.00;68.10;;;;;;4979409;28;20037;-88
2023/09/18 10:44:08;;;;;;;1.63;1.15;;;24.10;68.20;;;;;;4995643;28;20133;-83
2023/09/18 10:46:34;;;;;;;1.30;1.20;;;24.10;68.20;;;;;;4995651;28;20026;-84
2023/09/18 10:49:03;;;;;;;1.17;1.08;;;24.20;68.20;;;;;;4999064;28;20061;-84
2023/09/18 10:51:29;;;;;;;1.20;1.02;;;24.20;68.20;;;;;;4980855;28;20109;-85
2023/09/18 10:53:57;;;;;;;1.20;1.10;;;24.20;68.20;;;;;;4964938;28;20027;-81
2023/09/18 10:56:24;;;;;;;2.88;1.40;;;24.30;68.20;;;;;;4978369;28;20026;-82
2023/09/18 10:58:59;;;;;;;1.45;1.25;;;24.20;68.10;;;;;;5011326;28;20518;-81
2023/09/18 11:01:29;;;;;;;1.25;1.00;;;24.30;68.20;;;;;;4995076;28;20125;-81
2023/09/18 11:04:01;;;;;;;1.33;1.10;;;24.30;68.20;;;;;;4994678;28;20033;-80
2023/09/18 11:06:28;;;;;;;1.60;1.13;;;24.40;68.20;;;;;;5011487;28;20038;-82
2023/09/18 11:09:03;;;;;;;1.40;1.30;;;24.40;68.20;;;;;;4978268;28;20514;-83
2023/09/18 11:11:32;;;;;;;1.77;1.27;;;24.40;68.20;;;;;;4994601;28;20043;-83
2023/09/18 11:13:59;;;;;;;1.25;1.15;;;24.40;68.20;;;;;;4994566;28;20366;-82
2023/09/18 11:16:28;;;;;;;1.25;1.08;;;24.40;68.20;;;;;;5010639;28;20423;-81
2023/09/18 11:19:00;;;;;;;1.38;1.27;;;24.50;68.30;;;;;;5010788;28;20045;-82
2023/09/18 11:21:31;;;;;;;1.25;1.15;;;24.50;68.30;;;;;;4994489;28;20062;-82
2023/09/18 11:24:21;;;;;;;1.23;1.08;;;24.50;68.30;;;;;;4978460;28;20066;-84
2023/09/18 11:26:48;;;;;;;1.50;1.25;;;24.50;68.30;;;;;;4994457;28;20380;-84
2023/09/18 11:29:19;;;;;;;2.05;1.40;;;24.60;68.40;;;;;;4978267;28;20039;-83
2023/09/18 11:31:53;;;;;;;2.53;1.38;;;24.50;68.30;;;;;;4995836;28;20117;-84
2023/09/18 11:34:22;;;;;;;1.98;1.40;;;24.60;68.50;;;;;;5013952;28;20041;-84
2023/09/18 11:36:48;;;;;;;1.48;1.20;;;24.60;68.40;;;;;;5004433;28;20026;-83
2023/09/18 11:39:34;;;;;;;2.85;1.60;;;24.60;68.40;;;;;;5002830;28;20042;-84
2023/09/18 11:42:22;;;;;;;1.92;1.40;;;24.70;68.40;;;;;;5001227;28;20089;-84
2023/09/18 11:44:49;;;;;;;1.55;1.08;;;24.70;68.30;;;;;;4994885;28;20042;-84
2023/09/18 11:47:23;;;;;;;1.80;1.20;;;24.70;68.10;;;;;;5011273;28;20042;-83
2023/09/18 11:49:59;;;;;;;1.45;1.20;;;24.70;68.20;;;;;;4994256;28;20038;-84
2023/09/18 11:52:27;;;;;;;2.10;1.38;;;24.70;68.10;;;;;;4994172;28;20033;-83
2023/09/18 11:54:55;;;;;;;1.35;1.25;;;24.70;68.10;;;;;;4994182;28;20096;-85
2023/09/18 11:57:21;;;;;;;1.98;1.35;;;24.80;68.20;;;;;;4993924;28;20280;-81
2023/09/18 11:59:53;;;;;;;3.00;1.52;;;24.80;68.10;;;;;;4978099;28;20037;-82
2023/09/18 12:02:38;;;;;;;2.40;1.30;;;24.80;68.10;;;;;;4995312;28;20113;-83
2023/09/18 12:05:14;;;;;;;1.90;1.50;;;24.80;68.10;;;;;;4994047;28;20124;-83
2023/09/18 12:07:45;;;;;;;1.90;1.13;;;24.80;68.10;;;;;;4993613;28;20046;-82
2023/09/18 12:10:12;;;;;;;1.73;1.30;;;24.80;68.10;;;;;;4993589;28;20100;-84
2023/09/18 12:12:38;;;;;;;1.50;1.40;;;24.80;68.20;;;;;;4977993;28;20034;-84
2023/09/18 12:15:05;;;;;;;1.40;1.30;;;24.80;68.10;;;;;;4977638;28;20125;-83
2023/09/18 12:17:30;;;;;;;3.03;1.40;;;24.80;68.10;;;;;;5010774;28;20391;-83
2023/09/18 12:19:56;;;;;;;2.00;1.60;;;24.80;68.20;;;;;;4993372;28;20041;-83
2023/09/18 12:22:31;;;;;;;1.80;1.60;;;24.80;68.20;;;;;;4993371;28;20474;-83
2023/09/18 12:25:13;;;;;;;1.80;1.60;;;24.80;68.10;;;;;;4993662;28;20546;-83
2023/09/18 12:27:41;;;;;;;1.67;1.25;;;24.80;68.20;;;;;;4993155;28;20037;-84
2023/09/18 12:30:08;;;;;;;2.28;1.30;;;24.90;68.10;;;;;;4993546;28;20030;-83
2023/09/18 12:32:38;;;;;;;2.25;1.52;;;24.80;68.00;;;;;;4977810;28;20034;-83
2023/09/18 12:35:07;;;;;;;1.45;1.30;;;24.80;68.00;;;;;;4993684;28;20145;-83
2023/09/18 12:37:41;;;;;;;2.80;1.50;;;24.90;68.10;;;;;;4993630;28;20483;-83
2023/09/18 12:40:24;;;;;;;2.80;1.40;;;24.90;68.10;;;;;;4994436;28;20035;-82
2023/09/18 12:42:51;;;;;;;1.75;1.50;;;24.90;68.10;;;;;;4977179;28;20046;-83
2023/09/18 12:45:17;;;;;;;2.67;1.50;;;24.90;68.00;;;;;;5012197;28;20026;-83
2023/09/18 12:47:43;;;;;;;1.58;1.38;;;24.90;68.00;;;;;;5016326;28;20085;-82
2023/09/18 12:50:13;;;;;;;2.63;1.42;;;24.90;68.00;;;;;;4998184;28;20038;-84
2023/09/18 12:52:39;;;;;;;2.75;1.60;;;24.90;68.00;;;;;;4995592;28;20037;-83